Domov               UVHVVR             MKGP            O straneh              
ZDRAVSTVENO VARSTVO RASTLIN
  MREŽA AGROMET. POSTAJ
 ► PROGNOSTIČNA OBVESTILA
AGROMETEOROLOŠKI PODATKI -
ARSO
OBVLADOVANJE TVEGANJ ZARADI
NEUGODNIH VREMENSKIH RAZMER
  ► NARAVNE NESREČE
  ► SUŠA/MOČA
  ► NAMAKANJE
  ► ŽLED (gozdarstvo)
KARTOGRAFSKI PRIKAZI
SPLETNE POVEZAVE
PROJEKTI IN PUBLIKACIJE

AGROMETEOROLOŠKA MREŽA: VREMENSKE POSTAJE IN FENOLOŠKA OPAZOVANJA

Pregled podatkov za lokacijo Slap, meteorološka postaja 49193

Pregled senzorjev na lokaciji

ID Ime Zadnja
vrednost
Datum
zadnje
spremembe
Tip
senzorja
4318 Omočenost lista (U) 1 U 18.3.2019 23:00 A730WET
3694 Padavine (mm) 0 mm 18.3.2019 23:00 Rain-O-Matic
3688 Relativna vlaga 2 m (% RH) 69,25 % RH 18.3.2019 22:59 50YA
3691 Temperatura tal 5 cm (°C) 8,4 °C 18.3.2019 22:59 99TG411E
3687 Temperatura 2 m (°C) 6,74 °C 18.3.2019 23:00 50YA
3693 Smer vetra (°) 71,46 ° 18.3.2019 23:00 566.2S-130
3692 Hitrost vetra (km/h) 16,86 km/h 18.3.2019 23:00 566.2S-176 (200km/h)

Pregled podatkov zadnjih 24 ur

Zap.
št.
Datum in čas Slap
Omočenost
lista
Padavine Relativna
vlaga
2
m
Temperatura
tal
5
cm
Temperatura
2
m
Smer
vetra
Hitrost
vetra
1 18.3.2019 22:30
2 18.3.2019 22:00 1 0 69,3 8,4 6,7 71,5 16,9
3 18.3.2019 21:30 6 0 69,8 8,4 6,6 63,9 19,1
4 18.3.2019 21:00 5 0 66,9 8,5 6,9 72,9 25,7
5 18.3.2019 20:30 1 0 67,6 8,5 6,8 93,3 23,1
6 18.3.2019 20:00 1 0 68,4 8,5 6,7 109,1 25,9
7 18.3.2019 19:30 3 0,2 68,6 8,6 6,8 101,4 24,5
8 18.3.2019 19:00 3 0,2 69,7 8,6 6,7 80,3 19,4
9 18.3.2019 18:30 5 0 70,3 8,7 6,7 83 26
10 18.3.2019 18:00 10 0,2 69,2 8,7 6,8 81,8 22,4
11 18.3.2019 17:30 8 0 68,4 8,7 6,8 92 22
12 18.3.2019 17:00 2 0 66,9 8,8 7,1 86,5 28
13 18.3.2019 16:30 0 0 65,5 8,8 7,3 77,2 26,2
14 18.3.2019 16:00 2 0 67,3 8,8 7,2 94,8 29,7
15 18.3.2019 15:30 1 0 72,6 8,9 6,6 89,2 27,4
16 18.3.2019 15:00 3 0,4 74,9 8,9 6,4 85,6 20,2
17 18.3.2019 14:30 5 0,4 72 8,9 6,6 88,6 22,1
18 18.3.2019 14:00 4 0 73,3 8,9 6,4 78,8 23,7
19 18.3.2019 13:30 3 0,4 76,2 9 6,2 77,4 26,2
20 18.3.2019 13:00 3 0,4 79,9 9 6 62,1 22,8
21 18.3.2019 12:30 6 1,2 85,7 9 5,5 81,3 25,1
22 18.3.2019 12:00 6 4 86,8 9 5,5 68,2 28,4
23 18.3.2019 11:30 8 1,6 82,6 9 6,2 70,2 29,7
24 18.3.2019 11:00 9 2 79,1 9 7,4 71,7 19,3
25 18.3.2019 10:30 10 0,6 74,4 9,1 9,2 37,4 18,3
26 18.3.2019 10:00 4 0 82,7 9,2 11,7 26,3 4,5
27 18.3.2019 09:30 0 0 87,7 9,2 12,2 3,1 0,5
28 18.3.2019 09:00 3 0 92,2 9,2 11,4 160,4 2,4
29 18.3.2019 08:30 0 0 92,6 9,1 11 75,4 0,5
30 18.3.2019 08:00 0 0 91,9 9,1 10,7 172,7 0,2
31 18.3.2019 07:30 0 0 91,1 9,1 10,7 313,5 1,8
32 18.3.2019 07:00 0 0 91,5 9,1 10,4 36,6 1,8
33 18.3.2019 06:30 0 0 86,6 9,1 11 4,9 0,8
34 18.3.2019 06:00 0 0 81,8 9,2 11,7 73,9 1,1
35 18.3.2019 05:30 0 0 82,1 9,1 11,6 321,1 2,1
36 18.3.2019 05:00 0 0 78,9 9,2 12,3 183,9 5
37 18.3.2019 04:30 0 0 81,7 9,1 12,2 212,6 4,4
38 18.3.2019 04:00 0 0 82,7 9,2 12,1 215,9 2,3
39 18.3.2019 03:30 0 0 81,4 9,2 12,7 164,1 8,2
40 18.3.2019 03:00 0 0 87,3 9,2 12,6 194,2 12
41 18.3.2019 02:30 10 0 100 9,1 10 103,1 2,6
42 18.3.2019 02:00 10 0 100 9,1 10 256,2 0,9
43 18.3.2019 01:30 10 0 100 9,1 9,8 241,6 0,6
44 18.3.2019 01:00 10 0 100 9,1 9,9 179,5 1,9
45 18.3.2019 00:30 10 0,2 100 9,1 9,9 80,6 0,4
46 18.3.2019 00:00 10 0 99,9 9,1 10 214,9 1,8
47 17.3.2019 23:30 5 0 99,5 9,1 10 171 1,7
48 17.3.2019 23:00 3 0 98,7 9,1 10 154,2 2,8
© 2011 Ministrstvo za kmetijstvo, gozdarstvo in prehrano. Vse pravice pridržane.